sensor_id;sensor_type;location;lat;lon;timestamp;temperature;humidity
21216;DHT22;10765;50.954;5.322;2023-05-29T00:00:59;14.10;1.00
21216;DHT22;10765;50.954;5.322;2023-05-29T00:03:27;14.10;1.00
21216;DHT22;10765;50.954;5.322;2023-05-29T00:05:58;14.00;1.00
21216;DHT22;10765;50.954;5.322;2023-05-29T00:08:26;14.00;1.00
21216;DHT22;10765;50.954;5.322;2023-05-29T00:10:53;13.90;1.00
21216;DHT22;10765;50.954;5.322;2023-05-29T00:13:20;13.90;1.00
21216;DHT22;10765;50.954;5.322;2023-05-29T00:15:47;13.80;1.00
21216;DHT22;10765;50.954;5.322;2023-05-29T00:18:14;13.80;1.00
21216;DHT22;10765;50.954;5.322;2023-05-29T00:20:42;13.80;1.00
21216;DHT22;10765;50.954;5.322;2023-05-29T00:23:09;13.70;1.00
21216;DHT22;10765;50.954;5.322;2023-05-29T00:25:36;13.70;8.30
21216;DHT22;10765;50.954;5.322;2023-05-29T00:28:03;13.60;11.40
21216;DHT22;10765;50.954;5.322;2023-05-29T00:30:31;13.60;1.00
21216;DHT22;10765;50.954;5.322;2023-05-29T00:32:58;13.60;57.70
21216;DHT22;10765;50.954;5.322;2023-05-29T00:35:25;13.50;68.40
21216;DHT22;10765;50.954;5.322;2023-05-29T00:37:53;13.50;99.90
21216;DHT22;10765;50.954;5.322;2023-05-29T00:40:20;13.50;99.90
21216;DHT22;10765;50.954;5.322;2023-05-29T00:42:47;13.40;99.90
21216;DHT22;10765;50.954;5.322;2023-05-29T00:45:14;13.40;99.90
21216;DHT22;10765;50.954;5.322;2023-05-29T00:47:41;13.30;99.90
21216;DHT22;10765;50.954;5.322;2023-05-29T00:50:10;13.30;99.90
21216;DHT22;10765;50.954;5.322;2023-05-29T00:52:39;13.20;99.90
21216;DHT22;10765;50.954;5.322;2023-05-29T00:55:09;13.20;99.90
21216;DHT22;10765;50.954;5.322;2023-05-29T00:57:37;13.20;99.90
21216;DHT22;10765;50.954;5.322;2023-05-29T01:00:05;13.10;99.90
21216;DHT22;10765;50.954;5.322;2023-05-29T01:02:35;13.10;1.00
21216;DHT22;10765;50.954;5.322;2023-05-29T01:05:02;13.10;1.00
21216;DHT22;10765;50.954;5.322;2023-05-29T01:07:29;13.00;1.00
21216;DHT22;10765;50.954;5.322;2023-05-29T01:09:56;12.90;1.00
21216;DHT22;10765;50.954;5.322;2023-05-29T01:12:31;12.90;1.00
21216;DHT22;10765;50.954;5.322;2023-05-29T01:15:11;12.80;17.50
21216;DHT22;10765;50.954;5.322;2023-05-29T01:17:49;12.80;1.00
21216;DHT22;10765;50.954;5.322;2023-05-29T01:20:27;12.80;99.90
21216;DHT22;10765;50.954;5.322;2023-05-29T01:23:07;12.70;99.90
21216;DHT22;10765;50.954;5.322;2023-05-29T01:25:50;12.70;1.00
21216;DHT22;10765;50.954;5.322;2023-05-29T01:28:27;12.60;1.00
21216;DHT22;10765;50.954;5.322;2023-05-29T01:30:57;12.60;99.90
21216;DHT22;10765;50.954;5.322;2023-05-29T01:33:26;12.50;99.90
21216;DHT22;10765;50.954;5.322;2023-05-29T01:35:53;12.50;1.00
21216;DHT22;10765;50.954;5.322;2023-05-29T01:38:20;12.40;99.90
21216;DHT22;10765;50.954;5.322;2023-05-29T01:40:47;12.30;1.00
21216;DHT22;10765;50.954;5.322;2023-05-29T01:43:14;12.30;1.00
21216;DHT22;10765;50.954;5.322;2023-05-29T01:45:43;12.30;1.00
21216;DHT22;10765;50.954;5.322;2023-05-29T01:48:10;12.20;68.40
21216;DHT22;10765;50.954;5.322;2023-05-29T01:50:38;12.20;99.90
21216;DHT22;10765;50.954;5.322;2023-05-29T01:53:05;12.20;70.50
21216;DHT22;10765;50.954;5.322;2023-05-29T01:55:32;12.20;80.20
21216;DHT22;10765;50.954;5.322;2023-05-29T01:57:59;12.10;99.90
21216;DHT22;10765;50.954;5.322;2023-05-29T02:00:27;12.10;99.90
21216;DHT22;10765;50.954;5.322;2023-05-29T02:02:56;12.10;99.90
21216;DHT22;10765;50.954;5.322;2023-05-29T02:05:23;12.10;99.90
21216;DHT22;10765;50.954;5.322;2023-05-29T02:07:50;12.10;99.90
21216;DHT22;10765;50.954;5.322;2023-05-29T02:10:17;12.10;97.50
21216;DHT22;10765;50.954;5.322;2023-05-29T02:12:44;12.00;15.70
21216;DHT22;10765;50.954;5.322;2023-05-29T02:15:11;12.00;1.00
21216;DHT22;10765;50.954;5.322;2023-05-29T02:17:37;11.90;1.00
21216;DHT22;10765;50.954;5.322;2023-05-29T02:20:07;11.90;72.20
21216;DHT22;10765;50.954;5.322;2023-05-29T02:22:35;11.90;99.90
21216;DHT22;10765;50.954;5.322;2023-05-29T02:25:02;11.80;99.90
21216;DHT22;10765;50.954;5.322;2023-05-29T02:27:29;11.80;99.90
21216;DHT22;10765;50.954;5.322;2023-05-29T02:29:56;11.70;99.90
21216;DHT22;10765;50.954;5.322;2023-05-29T02:32:24;11.70;99.90
21216;DHT22;10765;50.954;5.322;2023-05-29T02:34:51;11.60;98.50
21216;DHT22;10765;50.954;5.322;2023-05-29T02:37:20;11.60;1.00
21216;DHT22;10765;50.954;5.322;2023-05-29T02:39:50;11.60;14.40
21216;DHT22;10765;50.954;5.322;2023-05-29T02:42:17;11.50;99.90
21216;DHT22;10765;50.954;5.322;2023-05-29T02:44:44;11.50;1.00
21216;DHT22;10765;50.954;5.322;2023-05-29T02:47:11;11.40;1.00
21216;DHT22;10765;50.954;5.322;2023-05-29T02:49:38;11.40;1.00
21216;DHT22;10765;50.954;5.322;2023-05-29T02:52:05;11.30;99.90
21216;DHT22;10765;50.954;5.322;2023-05-29T02:54:34;11.20;99.90
21216;DHT22;10765;50.954;5.322;2023-05-29T02:57:00;11.20;99.90
21216;DHT22;10765;50.954;5.322;2023-05-29T02:59:27;11.10;1.00
21216;DHT22;10765;50.954;5.322;2023-05-29T03:01:54;11.10;1.00
21216;DHT22;10765;50.954;5.322;2023-05-29T03:04:21;11.10;1.00
21216;DHT22;10765;50.954;5.322;2023-05-29T03:06:48;11.00;99.90
21216;DHT22;10765;50.954;5.322;2023-05-29T03:09:15;11.00;99.90
21216;DHT22;10765;50.954;5.322;2023-05-29T03:11:43;11.00;34.20
21216;DHT22;10765;50.954;5.322;2023-05-29T03:14:13;10.90;1.00
21216;DHT22;10765;50.954;5.322;2023-05-29T03:16:40;10.80;1.00
21216;DHT22;10765;50.954;5.322;2023-05-29T03:19:07;10.80;1.00
21216;DHT22;10765;50.954;5.322;2023-05-29T03:21:34;10.80;1.00
21216;DHT22;10765;50.954;5.322;2023-05-29T03:24:01;10.70;1.00
21216;DHT22;10765;50.954;5.322;2023-05-29T03:26:29;10.70;1.00
21216;DHT22;10765;50.954;5.322;2023-05-29T03:28:57;10.70;1.00
21216;DHT22;10765;50.954;5.322;2023-05-29T03:31:24;10.70;99.90
21216;DHT22;10765;50.954;5.322;2023-05-29T03:33:51;10.70;99.90
21216;DHT22;10765;50.954;5.322;2023-05-29T03:36:18;10.70;99.90
21216;DHT22;10765;50.954;5.322;2023-05-29T03:38:45;10.70;99.90
21216;DHT22;10765;50.954;5.322;2023-05-29T03:41:11;10.60;99.90
21216;DHT22;10765;50.954;5.322;2023-05-29T03:43:38;10.60;13.20
21216;DHT22;10765;50.954;5.322;2023-05-29T03:46:07;10.60;99.90
21216;DHT22;10765;50.954;5.322;2023-05-29T03:48:34;10.60;72.70
21216;DHT22;10765;50.954;5.322;2023-05-29T03:51:01;10.60;1.00
21216;DHT22;10765;50.954;5.322;2023-05-29T03:53:28;10.60;1.00
21216;DHT22;10765;50.954;5.322;2023-05-29T03:55:54;10.60;1.00
21216;DHT22;10765;50.954;5.322;2023-05-29T03:58:21;10.60;1.00
21216;DHT22;10765;50.954;5.322;2023-05-29T04:00:48;10.60;1.00
21216;DHT22;10765;50.954;5.322;2023-05-29T04:03:16;10.60;1.00
21216;DHT22;10765;50.954;5.322;2023-05-29T04:05:43;10.60;1.00
21216;DHT22;10765;50.954;5.322;2023-05-29T04:08:10;10.60;99.90
21216;DHT22;10765;50.954;5.322;2023-05-29T04:10:38;10.60;99.90
21216;DHT22;10765;50.954;5.322;2023-05-29T04:13:05;10.60;99.90
21216;DHT22;10765;50.954;5.322;2023-05-29T04:15:32;10.60;99.90
21216;DHT22;10765;50.954;5.322;2023-05-29T04:18:00;10.60;99.90
21216;DHT22;10765;50.954;5.322;2023-05-29T04:20:28;10.70;99.90
21216;DHT22;10765;50.954;5.322;2023-05-29T04:22:55;10.70;99.90
21216;DHT22;10765;50.954;5.322;2023-05-29T04:25:22;10.80;92.70
21216;DHT22;10765;50.954;5.322;2023-05-29T04:27:49;10.90;2.90
21216;DHT22;10765;50.954;5.322;2023-05-29T04:30:16;11.00;1.00
21216;DHT22;10765;50.954;5.322;2023-05-29T04:32:43;11.10;1.00
21216;DHT22;10765;50.954;5.322;2023-05-29T04:35:10;11.30;1.00
21216;DHT22;10765;50.954;5.322;2023-05-29T04:37:40;11.30;1.00
21216;DHT22;10765;50.954;5.322;2023-05-29T04:40:08;11.30;1.00
21216;DHT22;10765;50.954;5.322;2023-05-29T04:42:35;11.70;1.00
21216;DHT22;10765;50.954;5.322;2023-05-29T04:45:03;11.70;1.00
21216;DHT22;10765;50.954;5.322;2023-05-29T04:47:30;11.90;1.00
21216;DHT22;10765;50.954;5.322;2023-05-29T04:49:59;12.10;1.00
21216;DHT22;10765;50.954;5.322;2023-05-29T04:52:26;12.20;99.90
21216;DHT22;10765;50.954;5.322;2023-05-29T04:54:54;12.40;99.90
21216;DHT22;10765;50.954;5.322;2023-05-29T04:57:22;12.60;99.90
21216;DHT22;10765;50.954;5.322;2023-05-29T04:59:49;12.60;99.90
21216;DHT22;10765;50.954;5.322;2023-05-29T05:02:16;12.80;99.90
21216;DHT22;10765;50.954;5.322;2023-05-29T05:04:42;12.90;99.90
21216;DHT22;10765;50.954;5.322;2023-05-29T05:07:11;12.70;99.90
21216;DHT22;10765;50.954;5.322;2023-05-29T05:09:38;13.00;99.90
21216;DHT22;10765;50.954;5.322;2023-05-29T05:12:07;12.90;99.90
21216;DHT22;10765;50.954;5.322;2023-05-29T05:14:34;13.00;99.90
21216;DHT22;10765;50.954;5.322;2023-05-29T05:17:01;13.20;99.90
21216;DHT22;10765;50.954;5.322;2023-05-29T05:19:28;13.60;99.90
21216;DHT22;10765;50.954;5.322;2023-05-29T05:21:56;13.70;99.90
21216;DHT22;10765;50.954;5.322;2023-05-29T05:24:22;13.90;99.90
21216;DHT22;10765;50.954;5.322;2023-05-29T05:26:49;14.30;99.90
21216;DHT22;10765;50.954;5.322;2023-05-29T05:29:18;14.80;99.90
21216;DHT22;10765;50.954;5.322;2023-05-29T05:31:45;14.80;99.90
21216;DHT22;10765;50.954;5.322;2023-05-29T05:34:12;14.60;99.90
21216;DHT22;10765;50.954;5.322;2023-05-29T05:36:39;15.00;99.90
21216;DHT22;10765;50.954;5.322;2023-05-29T05:39:06;15.00;99.90
21216;DHT22;10765;50.954;5.322;2023-05-29T05:41:32;14.90;99.90
21216;DHT22;10765;50.954;5.322;2023-05-29T05:43:59;14.60;99.90
21216;DHT22;10765;50.954;5.322;2023-05-29T05:46:28;14.50;99.90
21216;DHT22;10765;50.954;5.322;2023-05-29T05:48:55;15.00;99.90
21216;DHT22;10765;50.954;5.322;2023-05-29T05:51:23;15.00;99.90
21216;DHT22;10765;50.954;5.322;2023-05-29T05:53:50;15.40;99.90
21216;DHT22;10765;50.954;5.322;2023-05-29T05:56:17;15.40;99.90
21216;DHT22;10765;50.954;5.322;2023-05-29T05:58:44;15.40;99.90
21216;DHT22;10765;50.954;5.322;2023-05-29T06:01:11;15.50;99.90
21216;DHT22;10765;50.954;5.322;2023-05-29T06:03:39;16.00;97.50
21216;DHT22;10765;50.954;5.322;2023-05-29T06:06:07;16.40;57.70
21216;DHT22;10765;50.954;5.322;2023-05-29T06:08:34;16.50;52.40
21216;DHT22;10765;50.954;5.322;2023-05-29T06:11:01;16.30;59.70
21216;DHT22;10765;50.954;5.322;2023-05-29T06:13:28;16.30;57.50
21216;DHT22;10765;50.954;5.322;2023-05-29T06:15:55;17.10;41.80
21216;DHT22;10765;50.954;5.322;2023-05-29T06:18:22;17.10;20.20
21216;DHT22;10765;50.954;5.322;2023-05-29T06:20:51;16.90;27.00
21216;DHT22;10765;50.954;5.322;2023-05-29T06:23:18;17.40;17.90
21216;DHT22;10765;50.954;5.322;2023-05-29T06:25:45;17.50;2.00
21216;DHT22;10765;50.954;5.322;2023-05-29T06:28:12;17.50;6.50
21216;DHT22;10765;50.954;5.322;2023-05-29T06:30:39;17.60;4.80
21216;DHT22;10765;50.954;5.322;2023-05-29T06:33:06;18.00;1.00
21216;DHT22;10765;50.954;5.322;2023-05-29T06:35:33;17.70;1.00
21216;DHT22;10765;50.954;5.322;2023-05-29T06:38:01;17.50;6.00
21216;DHT22;10765;50.954;5.322;2023-05-29T06:40:28;17.80;1.00
21216;DHT22;10765;50.954;5.322;2023-05-29T06:42:55;18.00;9.10
21216;DHT22;10765;50.954;5.322;2023-05-29T06:45:21;17.90;1.00
21216;DHT22;10765;50.954;5.322;2023-05-29T06:47:48;18.50;1.00
21216;DHT22;10765;50.954;5.322;2023-05-29T06:50:15;18.30;1.00
21216;DHT22;10765;50.954;5.322;2023-05-29T06:52:42;18.70;1.00
21216;DHT22;10765;50.954;5.322;2023-05-29T06:55:10;18.60;1.00
21216;DHT22;10765;50.954;5.322;2023-05-29T06:57:37;19.00;1.00
21216;DHT22;10765;50.954;5.322;2023-05-29T07:00:05;19.10;1.00
21216;DHT22;10765;50.954;5.322;2023-05-29T07:02:33;19.50;1.00
21216;DHT22;10765;50.954;5.322;2023-05-29T07:05:00;19.60;1.00
21216;DHT22;10765;50.954;5.322;2023-05-29T07:07:27;20.10;1.00
21216;DHT22;10765;50.954;5.322;2023-05-29T07:09:53;20.60;1.00
21216;DHT22;10765;50.954;5.322;2023-05-29T07:12:22;20.10;1.00
21216;DHT22;10765;50.954;5.322;2023-05-29T07:14:49;20.10;1.00
21216;DHT22;10765;50.954;5.322;2023-05-29T07:17:16;20.40;1.00
21216;DHT22;10765;50.954;5.322;2023-05-29T07:19:43;19.80;1.00
21216;DHT22;10765;50.954;5.322;2023-05-29T07:22:10;20.10;1.00
21216;DHT22;10765;50.954;5.322;2023-05-29T07:24:37;20.50;1.00
21216;DHT22;10765;50.954;5.322;2023-05-29T07:27:04;20.50;1.00
21216;DHT22;10765;50.954;5.322;2023-05-29T07:29:32;20.30;1.00
21216;DHT22;10765;50.954;5.322;2023-05-29T07:31:59;21.20;1.00
21216;DHT22;10765;50.954;5.322;2023-05-29T07:34:26;22.10;1.00
21216;DHT22;10765;50.954;5.322;2023-05-29T07:36:57;22.10;1.00
21216;DHT22;10765;50.954;5.322;2023-05-29T07:39:25;22.60;1.00
21216;DHT22;10765;50.954;5.322;2023-05-29T07:41:52;21.60;1.00
21216;DHT22;10765;50.954;5.322;2023-05-29T07:44:19;21.40;1.00
21216;DHT22;10765;50.954;5.322;2023-05-29T07:46:47;21.60;1.00
21216;DHT22;10765;50.954;5.322;2023-05-29T07:49:14;22.10;1.00
21216;DHT22;10765;50.954;5.322;2023-05-29T07:51:41;22.20;1.00
21216;DHT22;10765;50.954;5.322;2023-05-29T07:54:08;22.70;1.00
21216;DHT22;10765;50.954;5.322;2023-05-29T07:56:35;22.30;1.00
21216;DHT22;10765;50.954;5.322;2023-05-29T07:59:02;22.10;1.00
21216;DHT22;10765;50.954;5.322;2023-05-29T08:01:29;23.20;1.00
21216;DHT22;10765;50.954;5.322;2023-05-29T08:03:58;24.00;1.00
21216;DHT22;10765;50.954;5.322;2023-05-29T08:06:25;23.30;1.00
21216;DHT22;10765;50.954;5.322;2023-05-29T08:08:52;23.20;1.00
21216;DHT22;10765;50.954;5.322;2023-05-29T08:11:19;23.50;1.00
21216;DHT22;10765;50.954;5.322;2023-05-29T08:13:46;22.60;1.00
21216;DHT22;10765;50.954;5.322;2023-05-29T08:16:13;22.60;1.00
21216;DHT22;10765;50.954;5.322;2023-05-29T08:18:42;23.10;1.00
21216;DHT22;10765;50.954;5.322;2023-05-29T08:21:10;23.20;1.00
21216;DHT22;10765;50.954;5.322;2023-05-29T08:23:38;23.30;1.00
21216;DHT22;10765;50.954;5.322;2023-05-29T08:26:05;24.10;1.00
21216;DHT22;10765;50.954;5.322;2023-05-29T08:28:32;23.80;1.00
21216;DHT22;10765;50.954;5.322;2023-05-29T08:30:59;24.30;1.00
21216;DHT22;10765;50.954;5.322;2023-05-29T08:33:26;24.40;1.00
21216;DHT22;10765;50.954;5.322;2023-05-29T08:35:53;24.70;1.00
21216;DHT22;10765;50.954;5.322;2023-05-29T08:38:21;24.70;1.00
21216;DHT22;10765;50.954;5.322;2023-05-29T08:40:51;24.70;1.00
21216;DHT22;10765;50.954;5.322;2023-05-29T08:43:21;25.20;1.00
21216;DHT22;10765;50.954;5.322;2023-05-29T08:45:53;25.10;1.00
21216;DHT22;10765;50.954;5.322;2023-05-29T08:48:22;24.80;1.00
21216;DHT22;10765;50.954;5.322;2023-05-29T08:50:53;25.50;1.00
21216;DHT22;10765;50.954;5.322;2023-05-29T08:53:21;26.00;1.00
21216;DHT22;10765;50.954;5.322;2023-05-29T08:55:49;25.20;1.00
21216;DHT22;10765;50.954;5.322;2023-05-29T08:58:18;24.90;1.00
21216;DHT22;10765;50.954;5.322;2023-05-29T09:00:46;25.30;1.00
21216;DHT22;10765;50.954;5.322;2023-05-29T09:03:13;25.90;1.00
21216;DHT22;10765;50.954;5.322;2023-05-29T09:05:40;25.90;1.00
21216;DHT22;10765;50.954;5.322;2023-05-29T09:08:09;25.60;1.00
21216;DHT22;10765;50.954;5.322;2023-05-29T09:10:39;25.30;1.00
21216;DHT22;10765;50.954;5.322;2023-05-29T09:13:07;25.60;1.00
21216;DHT22;10765;50.954;5.322;2023-05-29T09:15:35;25.00;1.00
21216;DHT22;10765;50.954;5.322;2023-05-29T09:18:04;25.00;1.00
21216;DHT22;10765;50.954;5.322;2023-05-29T09:20:31;26.10;1.00
21216;DHT22;10765;50.954;5.322;2023-05-29T09:23:00;27.00;1.00
21216;DHT22;10765;50.954;5.322;2023-05-29T09:25:28;25.60;1.00
21216;DHT22;10765;50.954;5.322;2023-05-29T09:28:00;25.90;1.00
21216;DHT22;10765;50.954;5.322;2023-05-29T09:30:34;25.20;1.00
21216;DHT22;10765;50.954;5.322;2023-05-29T09:33:03;26.50;1.00
21216;DHT22;10765;50.954;5.322;2023-05-29T09:35:34;27.30;1.00
21216;DHT22;10765;50.954;5.322;2023-05-29T09:38:01;27.70;1.00
21216;DHT22;10765;50.954;5.322;2023-05-29T09:40:30;26.20;1.00
21216;DHT22;10765;50.954;5.322;2023-05-29T09:43:04;27.40;1.00
21216;DHT22;10765;50.954;5.322;2023-05-29T09:45:33;27.30;1.00
21216;DHT22;10765;50.954;5.322;2023-05-29T09:48:02;26.40;1.00
21216;DHT22;10765;50.954;5.322;2023-05-29T09:50:30;27.10;1.00
21216;DHT22;10765;50.954;5.322;2023-05-29T09:53:00;27.20;1.00
21216;DHT22;10765;50.954;5.322;2023-05-29T09:55:27;27.10;1.00
21216;DHT22;10765;50.954;5.322;2023-05-29T09:57:57;27.40;1.00
21216;DHT22;10765;50.954;5.322;2023-05-29T10:00:26;27.90;1.00
21216;DHT22;10765;50.954;5.322;2023-05-29T10:02:54;27.40;1.00
21216;DHT22;10765;50.954;5.322;2023-05-29T10:05:21;28.40;1.00
21216;DHT22;10765;50.954;5.322;2023-05-29T10:07:50;28.50;1.00
21216;DHT22;10765;50.954;5.322;2023-05-29T10:10:19;28.00;1.00
21216;DHT22;10765;50.954;5.322;2023-05-29T10:12:48;27.40;1.00
21216;DHT22;10765;50.954;5.322;2023-05-29T10:15:16;28.10;1.00
21216;DHT22;10765;50.954;5.322;2023-05-29T10:17:50;28.30;1.00
21216;DHT22;10765;50.954;5.322;2023-05-29T10:20:20;29.70;1.00
21216;DHT22;10765;50.954;5.322;2023-05-29T10:22:49;29.80;1.00
21216;DHT22;10765;50.954;5.322;2023-05-29T10:25:18;30.50;1.00
21216;DHT22;10765;50.954;5.322;2023-05-29T10:27:45;29.60;1.00
21216;DHT22;10765;50.954;5.322;2023-05-29T10:30:19;29.10;1.00
21216;DHT22;10765;50.954;5.322;2023-05-29T10:35:53;30.00;1.00
21216;DHT22;10765;50.954;5.322;2023-05-29T10:38:20;31.20;1.00
21216;DHT22;10765;50.954;5.322;2023-05-29T10:40:47;30.00;1.00
21216;DHT22;10765;50.954;5.322;2023-05-29T10:43:31;29.20;1.00
21216;DHT22;10765;50.954;5.322;2023-05-29T10:45:59;29.30;1.00
21216;DHT22;10765;50.954;5.322;2023-05-29T10:48:49;29.30;1.00
21216;DHT22;10765;50.954;5.322;2023-05-29T10:51:27;29.80;1.00
21216;DHT22;10765;50.954;5.322;2023-05-29T10:53:54;31.50;1.00
21216;DHT22;10765;50.954;5.322;2023-05-29T10:56:23;31.80;1.00
21216;DHT22;10765;50.954;5.322;2023-05-29T10:58:57;31.40;1.00
21216;DHT22;10765;50.954;5.322;2023-05-29T11:01:27;29.40;1.00
21216;DHT22;10765;50.954;5.322;2023-05-29T11:04:25;28.70;1.00
21216;DHT22;10765;50.954;5.322;2023-05-29T11:06:53;28.90;1.00
21216;DHT22;10765;50.954;5.322;2023-05-29T11:09:28;29.70;1.00
21216;DHT22;10765;50.954;5.322;2023-05-29T11:12:15;30.70;1.00
21216;DHT22;10765;50.954;5.322;2023-05-29T11:14:54;30.00;1.00
21216;DHT22;10765;50.954;5.322;2023-05-29T11:17:32;29.60;1.00
21216;DHT22;10765;50.954;5.322;2023-05-29T11:20:03;30.20;1.00
21216;DHT22;10765;50.954;5.322;2023-05-29T11:22:56;29.80;1.00
21216;DHT22;10765;50.954;5.322;2023-05-29T11:25:27;28.80;1.00
21216;DHT22;10765;50.954;5.322;2023-05-29T11:27:54;29.10;1.00
21216;DHT22;10765;50.954;5.322;2023-05-29T11:30:22;30.30;1.00
21216;DHT22;10765;50.954;5.322;2023-05-29T11:32:49;31.20;1.00
21216;DHT22;10765;50.954;5.322;2023-05-29T11:35:22;29.80;1.00
21216;DHT22;10765;50.954;5.322;2023-05-29T11:37:49;30.60;1.00
21216;DHT22;10765;50.954;5.322;2023-05-29T11:40:16;31.20;1.00
21216;DHT22;10765;50.954;5.322;2023-05-29T11:42:44;32.60;1.00
21216;DHT22;10765;50.954;5.322;2023-05-29T11:45:16;32.20;1.00
21216;DHT22;10765;50.954;5.322;2023-05-29T11:47:53;32.10;1.00
21216;DHT22;10765;50.954;5.322;2023-05-29T11:50:22;31.80;1.00
21216;DHT22;10765;50.954;5.322;2023-05-29T11:52:49;31.10;1.00
21216;DHT22;10765;50.954;5.322;2023-05-29T11:55:17;31.00;1.00
21216;DHT22;10765;50.954;5.322;2023-05-29T11:57:44;31.40;1.00
21216;DHT22;10765;50.954;5.322;2023-05-29T12:00:13;32.50;1.00
21216;DHT22;10765;50.954;5.322;2023-05-29T12:02:41;31.50;1.00
21216;DHT22;10765;50.954;5.322;2023-05-29T12:05:09;30.70;1.00
21216;DHT22;10765;50.954;5.322;2023-05-29T12:07:47;30.40;1.00
21216;DHT22;10765;50.954;5.322;2023-05-29T12:10:17;30.80;1.00
21216;DHT22;10765;50.954;5.322;2023-05-29T12:12:47;30.70;1.00
21216;DHT22;10765;50.954;5.322;2023-05-29T12:15:15;30.80;1.00
21216;DHT22;10765;50.954;5.322;2023-05-29T12:17:44;30.00;1.00
21216;DHT22;10765;50.954;5.322;2023-05-29T12:20:12;31.10;1.00
21216;DHT22;10765;50.954;5.322;2023-05-29T12:22:41;31.20;1.00
21216;DHT22;10765;50.954;5.322;2023-05-29T12:25:10;31.40;1.00
21216;DHT22;10765;50.954;5.322;2023-05-29T12:27:38;31.60;1.00
21216;DHT22;10765;50.954;5.322;2023-05-29T12:30:09;32.10;1.00
21216;DHT22;10765;50.954;5.322;2023-05-29T12:32:38;31.60;1.00
21216;DHT22;10765;50.954;5.322;2023-05-29T12:35:17;30.90;1.00
21216;DHT22;10765;50.954;5.322;2023-05-29T12:37:47;30.30;1.00
21216;DHT22;10765;50.954;5.322;2023-05-29T12:40:15;30.80;1.00
21216;DHT22;10765;50.954;5.322;2023-05-29T12:42:42;30.30;1.00
21216;DHT22;10765;50.954;5.322;2023-05-29T12:45:10;30.10;1.00
21216;DHT22;10765;50.954;5.322;2023-05-29T12:47:37;29.90;1.00
21216;DHT22;10765;50.954;5.322;2023-05-29T12:50:18;29.90;1.00
21216;DHT22;10765;50.954;5.322;2023-05-29T12:52:56;30.30;1.00
21216;DHT22;10765;50.954;5.322;2023-05-29T12:55:23;29.70;1.00
21216;DHT22;10765;50.954;5.322;2023-05-29T12:57:50;29.60;1.00
21216;DHT22;10765;50.954;5.322;2023-05-29T13:00:17;30.60;1.00
21216;DHT22;10765;50.954;5.322;2023-05-29T13:02:45;30.60;1.00
21216;DHT22;10765;50.954;5.322;2023-05-29T13:05:13;29.70;1.00
21216;DHT22;10765;50.954;5.322;2023-05-29T13:07:41;27.90;1.00
21216;DHT22;10765;50.954;5.322;2023-05-29T13:10:10;27.60;1.00
21216;DHT22;10765;50.954;5.322;2023-05-29T13:12:37;26.60;1.00
21216;DHT22;10765;50.954;5.322;2023-05-29T13:15:04;26.70;1.00
21216;DHT22;10765;50.954;5.322;2023-05-29T13:17:32;27.00;1.00
21216;DHT22;10765;50.954;5.322;2023-05-29T13:20:00;27.60;1.00
21216;DHT22;10765;50.954;5.322;2023-05-29T13:22:27;27.10;1.00
21216;DHT22;10765;50.954;5.322;2023-05-29T13:24:57;27.30;1.00
21216;DHT22;10765;50.954;5.322;2023-05-29T13:27:26;27.80;1.00
21216;DHT22;10765;50.954;5.322;2023-05-29T13:29:54;27.10;1.00
21216;DHT22;10765;50.954;5.322;2023-05-29T13:32:21;27.40;1.00
21216;DHT22;10765;50.954;5.322;2023-05-29T13:34:47;25.90;1.00
21216;DHT22;10765;50.954;5.322;2023-05-29T13:37:14;25.60;1.00
21216;DHT22;10765;50.954;5.322;2023-05-29T13:39:41;25.00;1.00
21216;DHT22;10765;50.954;5.322;2023-05-29T13:42:08;24.80;1.00
21216;DHT22;10765;50.954;5.322;2023-05-29T13:44:37;25.30;1.00
21216;DHT22;10765;50.954;5.322;2023-05-29T13:47:05;24.80;1.00
21216;DHT22;10765;50.954;5.322;2023-05-29T13:49:33;24.70;1.00
21216;DHT22;10765;50.954;5.322;2023-05-29T13:52:00;23.90;1.00
21216;DHT22;10765;50.954;5.322;2023-05-29T13:54:26;23.60;1.00
21216;DHT22;10765;50.954;5.322;2023-05-29T13:56:55;23.30;1.00
21216;DHT22;10765;50.954;5.322;2023-05-29T13:59:23;23.50;1.00
21216;DHT22;10765;50.954;5.322;2023-05-29T14:01:51;23.90;1.00
21216;DHT22;10765;50.954;5.322;2023-05-29T14:04:18;23.50;1.00
21216;DHT22;10765;50.954;5.322;2023-05-29T14:06:45;23.40;1.00
21216;DHT22;10765;50.954;5.322;2023-05-29T14:09:12;23.30;1.00
21216;DHT22;10765;50.954;5.322;2023-05-29T14:11:39;23.60;1.00
21216;DHT22;10765;50.954;5.322;2023-05-29T14:14:06;23.60;1.00
21216;DHT22;10765;50.954;5.322;2023-05-29T14:16:33;23.70;1.00
21216;DHT22;10765;50.954;5.322;2023-05-29T14:19:01;23.80;1.00
21216;DHT22;10765;50.954;5.322;2023-05-29T14:21:28;23.60;1.00
21216;DHT22;10765;50.954;5.322;2023-05-29T14:23:56;23.60;1.00
21216;DHT22;10765;50.954;5.322;2023-05-29T14:26:23;23.70;1.00
21216;DHT22;10765;50.954;5.322;2023-05-29T14:28:50;23.80;1.00
21216;DHT22;10765;50.954;5.322;2023-05-29T14:31:16;23.50;1.00
21216;DHT22;10765;50.954;5.322;2023-05-29T14:33:43;23.90;1.00
21216;DHT22;10765;50.954;5.322;2023-05-29T14:36:11;23.90;1.00
21216;DHT22;10765;50.954;5.322;2023-05-29T14:38:38;23.40;1.00
21216;DHT22;10765;50.954;5.322;2023-05-29T14:41:05;23.30;1.00
21216;DHT22;10765;50.954;5.322;2023-05-29T14:43:33;23.50;1.00
21216;DHT22;10765;50.954;5.322;2023-05-29T14:46:00;23.40;1.00
21216;DHT22;10765;50.954;5.322;2023-05-29T14:48:26;23.30;1.00
21216;DHT22;10765;50.954;5.322;2023-05-29T14:50:53;22.60;1.00
21216;DHT22;10765;50.954;5.322;2023-05-29T14:53:21;22.60;1.00
21216;DHT22;10765;50.954;5.322;2023-05-29T14:55:49;22.70;1.00
21216;DHT22;10765;50.954;5.322;2023-05-29T14:58:15;23.00;1.00
21216;DHT22;10765;50.954;5.322;2023-05-29T15:00:42;22.50;1.00
21216;DHT22;10765;50.954;5.322;2023-05-29T15:03:09;22.50;1.00
21216;DHT22;10765;50.954;5.322;2023-05-29T15:05:36;22.80;1.00
21216;DHT22;10765;50.954;5.322;2023-05-29T15:08:03;22.50;1.00
21216;DHT22;10765;50.954;5.322;2023-05-29T15:10:32;22.40;1.00
21216;DHT22;10765;50.954;5.322;2023-05-29T15:12:59;22.30;1.00
21216;DHT22;10765;50.954;5.322;2023-05-29T15:15:26;22.10;1.00
21216;DHT22;10765;50.954;5.322;2023-05-29T15:17:54;22.30;1.00
21216;DHT22;10765;50.954;5.322;2023-05-29T15:20:22;22.40;1.00
21216;DHT22;10765;50.954;5.322;2023-05-29T15:22:49;22.50;1.00
21216;DHT22;10765;50.954;5.322;2023-05-29T15:25:17;22.30;1.00
21216;DHT22;10765;50.954;5.322;2023-05-29T15:27:46;22.20;1.00
21216;DHT22;10765;50.954;5.322;2023-05-29T15:30:15;22.10;1.40
21216;DHT22;10765;50.954;5.322;2023-05-29T15:32:43;21.90;8.50
21216;DHT22;10765;50.954;5.322;2023-05-29T15:35:12;21.80;14.70
21216;DHT22;10765;50.954;5.322;2023-05-29T15:37:41;21.70;18.70
21216;DHT22;10765;50.954;5.322;2023-05-29T15:40:09;21.70;17.20
21216;DHT22;10765;50.954;5.322;2023-05-29T15:42:36;21.40;27.00
21216;DHT22;10765;50.954;5.322;2023-05-29T15:45:06;21.40;26.60
21216;DHT22;10765;50.954;5.322;2023-05-29T15:47:33;21.40;26.90
21216;DHT22;10765;50.954;5.322;2023-05-29T15:50:00;21.30;31.30
21216;DHT22;10765;50.954;5.322;2023-05-29T15:52:27;21.40;30.20